createdAt,value
2019-02-25T00:02:26.408Z,60.60
2019-02-25T00:04:54.919Z,60.60
2019-02-25T00:07:23.298Z,60.70
2019-02-25T00:09:51.748Z,60.70
2019-02-25T00:12:20.185Z,60.80
2019-02-25T00:14:48.587Z,60.80
2019-02-25T00:17:17.010Z,61.00
2019-02-25T00:19:45.388Z,61.00
2019-02-25T00:22:13.811Z,61.00
2019-02-25T00:24:42.201Z,61.10
2019-02-25T00:27:10.619Z,61.30
2019-02-25T00:29:39.009Z,61.40
2019-02-25T00:32:07.412Z,61.40
2019-02-25T00:34:35.865Z,61.50
2019-02-25T00:37:04.297Z,61.50
2019-02-25T00:39:32.661Z,61.60
2019-02-25T00:42:01.145Z,61.60
2019-02-25T00:44:29.543Z,61.70
2019-02-25T00:46:57.941Z,61.70
2019-02-25T00:49:26.326Z,61.90
2019-02-25T00:51:54.782Z,61.90
2019-02-25T00:54:23.115Z,62.00
2019-02-25T00:56:51.542Z,62.00
2019-02-25T00:59:19.936Z,62.10
2019-02-25T01:01:48.360Z,62.10
2019-02-25T01:04:16.740Z,62.30
2019-02-25T01:06:45.154Z,62.30
2019-02-25T01:09:13.839Z,62.40
2019-02-25T01:11:42.301Z,62.40
2019-02-25T01:14:10.700Z,62.40
2019-02-25T01:16:39.110Z,62.40
2019-02-25T01:19:07.502Z,62.50
2019-02-25T01:21:35.898Z,62.60
2019-02-25T01:24:04.279Z,62.70
2019-02-25T01:26:32.687Z,62.70
2019-02-25T01:29:01.072Z,62.80
2019-02-25T01:31:29.852Z,62.90
2019-02-25T01:33:58.236Z,62.90
2019-02-25T01:36:26.933Z,63.00
2019-02-25T01:38:55.317Z,63.10
2019-02-25T01:41:23.713Z,63.20
2019-02-25T01:43:52.129Z,63.20
2019-02-25T01:46:20.567Z,63.20
2019-02-25T01:48:49.021Z,63.50
2019-02-25T01:51:17.399Z,63.40
2019-02-25T01:53:45.838Z,63.30
2019-02-25T01:56:14.589Z,63.50
2019-02-25T01:58:43.031Z,63.50
2019-02-25T02:01:11.423Z,63.50
2019-02-25T02:03:39.814Z,63.50
2019-02-25T02:06:08.318Z,63.60
2019-02-25T02:08:36.739Z,63.70
2019-02-25T02:11:05.161Z,63.80
2019-02-25T02:13:33.829Z,63.80
2019-02-25T02:16:02.222Z,63.80
2019-02-25T02:18:30.653Z,63.90
2019-02-25T02:20:59.439Z,64.00
2019-02-25T02:23:27.937Z,64.00
2019-02-25T02:25:56.310Z,64.00
2019-02-25T02:28:24.723Z,64.10
2019-02-25T02:30:53.526Z,64.20
2019-02-25T02:33:22.070Z,64.20
2019-02-25T02:35:50.455Z,64.30
2019-02-25T02:38:19.156Z,64.30
2019-02-25T02:40:47.541Z,64.30
2019-02-25T02:43:15.972Z,64.40
2019-02-25T02:45:47.656Z,64.40
2019-02-25T02:48:27.819Z,64.50
2019-02-25T02:50:56.254Z,64.50
2019-02-25T02:53:24.682Z,64.70
2019-02-25T02:55:53.076Z,64.60
2019-02-25T02:58:21.514Z,64.70
2019-02-25T03:00:49.909Z,64.70
2019-02-25T03:03:18.311Z,64.70
2019-02-25T03:05:46.690Z,64.70
2019-02-25T03:08:15.104Z,64.90
2019-02-25T03:10:43.515Z,64.90
2019-02-25T03:13:11.932Z,64.90
2019-02-25T03:15:40.302Z,65.00
2019-02-25T03:18:08.789Z,64.90
2019-02-25T03:20:37.200Z,65.00
2019-02-25T03:23:05.741Z,65.00
2019-02-25T03:25:34.499Z,65.10
2019-02-25T03:28:02.887Z,65.10
2019-02-25T03:30:31.330Z,65.10
2019-02-25T03:32:59.696Z,65.00
2019-02-25T03:35:28.196Z,65.00
2019-02-25T03:37:56.597Z,65.10
2019-02-25T03:40:25.293Z,65.10
2019-02-25T03:42:53.960Z,65.10
2019-02-25T03:45:22.448Z,65.10
2019-02-25T03:47:50.850Z,65.10
2019-02-25T03:50:19.264Z,65.20
2019-02-25T03:52:47.648Z,65.20
2019-02-25T03:55:22.184Z,65.40
2019-02-25T03:57:50.580Z,65.40
2019-02-25T04:00:23.089Z,65.40
2019-02-25T04:02:51.490Z,65.50
2019-02-25T04:05:19.906Z,65.60
2019-02-25T04:07:48.293Z,65.60
2019-02-25T04:10:16.694Z,65.70
2019-02-25T04:12:45.136Z,65.70
2019-02-25T04:15:17.643Z,65.80
2019-02-25T04:17:46.003Z,65.70
2019-02-25T04:20:15.861Z,65.80
2019-02-25T04:22:44.616Z,66.00
2019-02-25T04:25:13.064Z,66.80
2019-02-25T04:27:41.469Z,66.00
2019-02-25T04:30:17.081Z,66.00
2019-02-25T04:32:45.527Z,66.00
2019-02-25T04:35:14.205Z,66.10
2019-02-25T04:37:42.581Z,66.10
2019-02-25T04:40:14.220Z,66.10
2019-02-25T04:42:42.629Z,66.20
2019-02-25T04:45:18.244Z,66.30
2019-02-25T04:47:46.724Z,66.30
2019-02-25T04:50:15.176Z,67.00
2019-02-25T04:52:43.625Z,66.20
2019-02-25T04:55:13.099Z,66.10
2019-02-25T04:57:41.508Z,66.00
2019-02-25T05:00:24.482Z,66.10
2019-02-25T05:02:52.898Z,66.00
2019-02-25T05:05:21.317Z,66.10
2019-02-25T05:07:49.719Z,66.10
2019-02-25T05:10:18.314Z,66.10
2019-02-25T05:13:06.190Z,66.10
2019-02-25T05:15:36.066Z,66.10
2019-02-25T05:18:04.591Z,66.10
2019-02-25T05:20:33.012Z,66.20
2019-02-25T05:23:01.426Z,66.30
2019-02-25T05:25:30.101Z,66.40
2019-02-25T05:27:58.500Z,66.40
2019-02-25T05:30:26.912Z,66.50
2019-02-25T05:32:55.310Z,67.30
2019-02-25T05:35:23.717Z,66.50
2019-02-25T05:37:52.121Z,66.60
2019-02-25T05:40:21.085Z,66.70
2019-02-25T05:42:49.582Z,66.90
2019-02-25T05:45:17.950Z,66.80
2019-02-25T05:47:46.393Z,66.70
2019-02-25T05:50:21.685Z,66.80
2019-02-25T05:52:50.046Z,66.80
2019-02-25T05:55:18.434Z,66.90
2019-02-25T05:57:47.114Z,66.90
2019-02-25T06:00:21.441Z,66.90
2019-02-25T06:02:49.865Z,66.90
2019-02-25T06:05:18.277Z,66.90
2019-02-25T06:07:46.690Z,67.00
2019-02-25T06:10:15.246Z,67.00
2019-02-25T06:12:43.652Z,67.00
2019-02-25T06:15:14.465Z,67.00
2019-02-25T06:17:43.194Z,67.00
2019-02-25T06:20:13.921Z,67.20
2019-02-25T06:22:42.312Z,67.30
2019-02-25T06:25:14.382Z,67.30
2019-02-25T06:27:42.761Z,67.20
2019-02-25T06:30:17.068Z,67.30
2019-02-25T06:32:45.460Z,67.40
2019-02-25T06:35:14.052Z,67.20
2019-02-25T06:37:42.495Z,67.40
2019-02-25T06:40:16.436Z,67.50
2019-02-25T06:42:44.821Z,67.60
2019-02-25T06:45:18.748Z,67.40
2019-02-25T06:47:47.216Z,67.10
2019-02-25T06:50:15.646Z,66.80
2019-02-25T06:52:44.331Z,66.40
2019-02-25T06:55:16.984Z,66.20
2019-02-25T06:57:45.398Z,66.00
2019-02-25T07:00:18.616Z,65.90
2019-02-25T07:02:47.055Z,65.80
2019-02-25T07:05:33.287Z,65.60
2019-02-25T07:08:14.926Z,65.40
2019-02-25T07:10:47.580Z,65.20
2019-02-25T07:13:17.611Z,65.00
2019-02-25T07:15:53.645Z,64.90
2019-02-25T07:18:38.391Z,64.70
2019-02-25T07:21:24.821Z,64.50
2019-02-25T07:24:11.343Z,64.30
2019-02-25T07:26:43.959Z,64.00
2019-02-25T07:29:14.048Z,63.80
2019-02-25T07:31:50.022Z,64.40
2019-02-25T07:34:35.213Z,63.50
2019-02-25T07:37:14.296Z,63.30
2019-02-25T07:39:44.335Z,63.20
2019-02-25T07:42:32.619Z,63.20
2019-02-25T07:45:08.544Z,63.10
2019-02-25T07:47:41.365Z,63.10
2019-02-25T07:50:29.098Z,63.00
2019-02-25T07:53:14.340Z,63.00
2019-02-25T07:55:50.000Z,62.90
2019-02-25T07:58:20.034Z,63.00
2019-02-25T08:00:50.086Z,62.60
2019-02-25T08:03:20.124Z,62.40
2019-02-25T08:05:50.144Z,62.20
2019-02-25T08:08:36.240Z,61.90
2019-02-25T08:11:22.515Z,61.70
2019-02-25T08:14:08.571Z,61.40
2019-02-25T08:16:50.355Z,61.30
2019-02-25T08:19:23.132Z,61.10
2019-02-25T08:22:09.481Z,60.80
2019-02-25T08:24:42.505Z,60.70
2019-02-25T08:27:15.238Z,60.50
2019-02-25T08:30:01.600Z,60.30
2019-02-25T08:32:49.666Z,60.30
2019-02-25T08:36:01.529Z,60.00
2019-02-25T08:38:48.007Z,59.90
2019-02-25T08:41:20.572Z,59.80
2019-02-25T08:44:08.527Z,59.60
2019-02-25T08:46:41.011Z,59.50
2019-02-25T08:49:16.835Z,59.30
2019-02-25T08:51:45.246Z,59.30
2019-02-25T08:54:13.744Z,59.10
2019-02-25T08:56:42.143Z,59.00
2019-02-25T08:59:10.523Z,58.90
2019-02-25T09:01:38.938Z,58.80
2019-02-25T09:04:07.338Z,58.70
2019-02-25T09:06:35.755Z,58.60
2019-02-25T09:09:04.910Z,58.60
2019-02-25T09:11:33.263Z,58.50
2019-02-25T09:14:01.653Z,58.50
2019-02-25T09:16:30.068Z,58.40
2019-02-25T09:18:58.462Z,58.30
2019-02-25T09:21:31.762Z,58.30
2019-02-25T09:23:57.253Z,58.20
2019-02-25T09:26:25.708Z,58.20
2019-02-25T09:28:54.118Z,58.10
2019-02-25T09:31:22.523Z,58.00
2019-02-25T09:33:50.977Z,57.90
2019-02-25T09:36:19.371Z,57.80
2019-02-25T09:38:47.750Z,57.70
2019-02-25T09:41:16.181Z,57.60
2019-02-25T09:43:44.567Z,57.50
2019-02-25T09:46:13.259Z,57.50
2019-02-25T09:48:41.949Z,57.30
2019-02-25T09:51:11.361Z,57.30
2019-02-25T09:53:39.877Z,57.20
2019-02-25T09:56:08.566Z,57.00
2019-02-25T09:58:36.979Z,56.90
2019-02-25T10:01:05.387Z,56.80
2019-02-25T10:03:33.762Z,56.60
2019-02-25T10:06:02.487Z,56.50
2019-02-25T10:08:30.895Z,56.30
2019-02-25T10:10:59.298Z,56.20
2019-02-25T10:13:27.696Z,56.10
2019-02-25T10:15:56.083Z,55.90
2019-02-25T10:18:24.799Z,55.80
2019-02-25T10:20:53.193Z,55.70
2019-02-25T10:23:21.623Z,55.50
2019-02-25T10:25:50.001Z,55.40
2019-02-25T10:28:18.410Z,55.30
2019-02-25T10:30:52.745Z,55.10
2019-02-25T10:33:17.193Z,55.00
2019-02-25T10:35:45.603Z,54.80
2019-02-25T10:38:14.029Z,54.60
2019-02-25T10:40:43.350Z,54.40
2019-02-25T10:43:12.448Z,54.30
2019-02-25T10:45:41.568Z,54.20
2019-02-25T10:48:10.956Z,53.90
2019-02-25T10:50:40.924Z,53.70
2019-02-25T10:53:10.833Z,53.60
2019-02-25T10:55:57.603Z,53.40
2019-02-25T10:58:26.969Z,53.20
2019-02-25T11:00:56.378Z,52.90
2019-02-25T11:03:24.778Z,52.80
2019-02-25T11:05:53.987Z,52.50
2019-02-25T11:08:23.318Z,52.40
2019-02-25T11:10:56.269Z,52.10
2019-02-25T11:13:25.489Z,51.90
2019-02-25T11:15:54.791Z,51.60
2019-02-25T11:18:24.546Z,51.40
2019-02-25T11:20:53.219Z,51.10
2019-02-25T11:23:21.916Z,50.90
2019-02-25T11:25:51.499Z,50.80
2019-02-25T11:28:25.605Z,50.50
2019-02-25T11:30:51.964Z,50.20
2019-02-25T11:33:22.722Z,50.10
2019-02-25T11:35:51.351Z,49.80
2019-02-25T11:38:19.773Z,49.40
2019-02-25T11:40:48.161Z,49.20
2019-02-25T11:43:18.622Z,49.00
2019-02-25T11:45:46.626Z,48.70
2019-02-25T11:48:15.027Z,48.50
2019-02-25T11:50:44.830Z,48.10
2019-02-25T11:53:13.501Z,47.80
2019-02-25T11:55:41.864Z,47.40
2019-02-25T11:58:10.556Z,47.00
2019-02-25T12:00:39.900Z,46.70
2019-02-25T12:03:08.352Z,46.20
2019-02-25T12:05:36.736Z,45.80
2019-02-25T12:08:05.180Z,45.50
2019-02-25T12:10:33.611Z,45.20
2019-02-25T12:13:02.004Z,44.90
2019-02-25T12:15:30.384Z,44.70
2019-02-25T12:17:58.781Z,44.30
2019-02-25T12:20:27.179Z,44.00
2019-02-25T12:22:55.591Z,43.70
2019-02-25T12:25:24.909Z,43.50
2019-02-25T12:27:53.325Z,43.30
2019-02-25T12:30:23.053Z,43.10
2019-02-25T12:32:51.471Z,42.90
2019-02-25T12:35:19.872Z,42.70
2019-02-25T12:37:48.288Z,42.40
2019-02-25T12:40:16.877Z,42.20
2019-02-25T12:42:45.289Z,41.90
2019-02-25T12:45:14.638Z,41.60
2019-02-25T12:47:43.024Z,41.20
2019-02-25T12:50:16.095Z,40.90
2019-02-25T12:52:44.495Z,40.50
2019-02-25T12:55:18.951Z,40.10
2019-02-25T12:57:47.339Z,39.60
2019-02-25T13:00:19.459Z,39.10
2019-02-25T13:02:47.916Z,38.90
2019-02-25T13:05:18.923Z,38.30
2019-02-25T13:07:47.576Z,37.90
2019-02-25T13:10:16.728Z,37.30
2019-02-25T13:12:45.389Z,36.90
2019-02-25T13:15:17.508Z,36.20
2019-02-25T13:17:45.895Z,35.70
2019-02-25T13:20:15.038Z,34.90
2019-02-25T13:22:43.746Z,34.20
2019-02-25T13:25:15.010Z,33.60
2019-02-25T13:27:43.457Z,32.70
2019-02-25T13:30:19.418Z,31.70
2019-02-25T13:32:47.805Z,30.90
2019-02-25T13:35:16.288Z,30.10
2019-02-25T13:37:44.685Z,29.70
2019-02-25T13:40:14.339Z,29.10
2019-02-25T13:42:42.797Z,28.70
2019-02-25T13:45:16.444Z,28.30
2019-02-25T13:47:44.863Z,27.80
2019-02-25T13:50:16.778Z,27.40
2019-02-25T13:52:48.278Z,26.90
2019-02-25T13:55:16.890Z,26.50
2019-02-25T13:57:45.278Z,26.20
2019-02-25T14:00:16.858Z,25.70
2019-02-25T14:02:45.429Z,25.40
2019-02-25T14:05:13.968Z,25.20
2019-02-25T14:07:42.380Z,24.90
2019-02-25T14:10:14.891Z,24.70
2019-02-25T14:12:43.272Z,24.40
2019-02-25T14:15:20.846Z,24.10
2019-02-25T14:17:49.254Z,23.90
2019-02-25T14:20:21.716Z,23.80
2019-02-25T14:22:50.432Z,23.60
2019-02-25T14:25:32.251Z,23.40
2019-02-25T14:28:02.728Z,23.20
2019-02-25T14:30:33.404Z,23.10
2019-02-25T14:33:00.677Z,22.90
2019-02-25T14:35:33.569Z,22.70
2019-02-25T14:38:10.400Z,22.50
2019-02-25T14:40:39.674Z,22.30
2019-02-25T14:43:10.488Z,22.60
2019-02-25T14:45:41.436Z,21.90
2019-02-25T14:48:10.437Z,21.70
2019-02-25T14:50:38.522Z,21.50
2019-02-25T14:53:10.732Z,21.30
2019-02-25T14:55:37.051Z,21.20
2019-02-25T14:58:07.372Z,21.10
2019-02-25T15:00:38.033Z,21.20
2019-02-25T15:03:05.623Z,21.30
2019-02-25T15:05:34.059Z,21.40
2019-02-25T15:08:02.551Z,21.10
2019-02-25T15:10:31.671Z,21.70
2019-02-25T15:13:02.154Z,21.80
2019-02-25T15:15:31.072Z,21.80
2019-02-25T15:18:00.267Z,21.90
2019-02-25T15:20:28.974Z,21.90
2019-02-25T15:22:57.434Z,21.80
2019-02-25T15:25:29.142Z,21.90
2019-02-25T15:27:56.208Z,21.80
2019-02-25T15:30:30.777Z,21.90
2019-02-25T15:33:00.476Z,21.80
2019-02-25T15:35:31.664Z,21.80
2019-02-25T15:38:00.483Z,21.80
2019-02-25T15:40:29.076Z,21.80
2019-02-25T15:43:03.441Z,21.80
2019-02-25T15:45:35.417Z,21.90
2019-02-25T15:48:04.621Z,21.90
2019-02-25T15:50:33.310Z,21.90
2019-02-25T15:53:03.322Z,22.10
2019-02-25T15:55:32.059Z,22.60
2019-02-25T15:58:00.451Z,23.20
2019-02-25T16:00:31.700Z,24.00
2019-02-25T16:02:59.864Z,24.90
2019-02-25T16:05:29.695Z,25.70
2019-02-25T16:08:00.610Z,26.50
2019-02-25T16:10:29.025Z,27.20
2019-02-25T16:12:57.880Z,27.90
2019-02-25T16:15:27.695Z,28.60
2019-02-25T16:17:56.640Z,29.40
2019-02-25T16:20:25.825Z,30.00
2019-02-25T16:22:56.292Z,30.80
2019-02-25T16:25:27.534Z,31.60
2019-02-25T16:27:57.174Z,32.30
2019-02-25T16:30:26.734Z,33.00
2019-02-25T16:32:55.665Z,33.70
2019-02-25T16:35:24.362Z,34.20
2019-02-25T16:37:55.065Z,34.80
2019-02-25T16:40:26.367Z,35.30
2019-02-25T16:42:55.008Z,35.90
2019-02-25T16:45:28.518Z,36.40
2019-02-25T16:47:55.618Z,36.90
2019-02-25T16:50:24.074Z,37.30
2019-02-25T16:52:53.287Z,37.80
2019-02-25T16:55:25.070Z,38.20
2019-02-25T16:57:53.199Z,38.60
2019-02-25T17:00:29.885Z,38.90
2019-02-25T17:03:01.360Z,39.30
2019-02-25T17:05:27.733Z,39.60
2019-02-25T17:07:56.425Z,39.90
2019-02-25T17:10:28.914Z,40.30
2019-02-25T17:12:56.620Z,40.50
2019-02-25T17:15:26.987Z,40.90
2019-02-25T17:17:58.304Z,41.20
2019-02-25T17:20:27.795Z,41.40
2019-02-25T17:22:55.598Z,41.80
2019-02-25T17:25:26.830Z,42.10
2019-02-25T17:27:54.465Z,42.40
2019-02-25T17:30:24.175Z,42.70
2019-02-25T17:32:52.641Z,43.00
2019-02-25T17:35:23.576Z,43.20
2019-02-25T17:37:53.325Z,43.70
2019-02-25T17:40:22.224Z,44.00
2019-02-25T17:42:51.648Z,44.20
2019-02-25T17:45:29.953Z,44.50
2019-02-25T17:48:03.199Z,44.80
2019-02-25T17:50:30.307Z,45.00
2019-02-25T17:53:00.910Z,45.30
2019-02-25T17:55:31.697Z,45.60
2019-02-25T17:58:00.973Z,45.90
2019-02-25T18:00:39.490Z,46.20
2019-02-25T18:03:08.832Z,46.40
2019-02-25T18:05:38.731Z,46.70
2019-02-25T18:08:10.550Z,46.90
2019-02-25T18:10:39.167Z,47.20
2019-02-25T18:13:08.669Z,47.50
2019-02-25T18:15:37.742Z,47.70
2019-02-25T18:18:09.153Z,48.00
2019-02-25T18:20:36.638Z,48.20
2019-02-25T18:23:06.272Z,48.40
2019-02-25T18:25:34.743Z,48.70
2019-02-25T18:28:04.411Z,48.90
2019-02-25T18:30:33.521Z,49.10
2019-02-25T18:33:04.641Z,49.30
2019-02-25T18:35:33.910Z,49.50
2019-02-25T18:38:03.133Z,49.70
2019-02-25T18:40:33.457Z,49.90
2019-02-25T18:43:03.024Z,50.10
2019-02-25T18:45:33.257Z,50.30
2019-02-25T18:48:02.222Z,50.60
2019-02-25T18:50:30.933Z,50.80
2019-02-25T18:53:01.206Z,50.80
2019-02-25T18:55:31.550Z,51.00
2019-02-25T18:57:59.486Z,51.30
2019-02-25T19:00:40.681Z,51.40
2019-02-25T19:03:10.464Z,51.60
2019-02-25T19:05:39.136Z,51.90
2019-02-25T19:08:17.198Z,52.00
2019-02-25T19:10:46.167Z,52.10
2019-02-25T19:13:15.980Z,52.40
2019-02-25T19:15:45.706Z,52.50
2019-02-25T19:18:15.977Z,52.60
2019-02-25T19:20:47.584Z,52.80
2019-02-25T19:23:16.548Z,52.80
2019-02-25T19:25:45.158Z,53.10
2019-02-25T19:28:16.604Z,53.20
2019-02-25T19:30:43.641Z,53.30
2019-02-25T19:33:12.385Z,53.50
2019-02-25T19:35:41.012Z,53.60
2019-02-25T19:38:10.385Z,53.60
2019-02-25T19:40:40.847Z,53.80
2019-02-25T19:43:09.877Z,53.90
2019-02-25T19:45:39.086Z,54.00
2019-02-25T19:48:08.390Z,54.10
2019-02-25T19:50:38.550Z,54.20
2019-02-25T19:53:07.635Z,54.30
2019-02-25T19:55:38.678Z,54.40
2019-02-25T19:58:06.925Z,54.60
2019-02-25T20:00:35.956Z,54.80
2019-02-25T20:03:05.964Z,55.00
2019-02-25T20:05:38.734Z,55.10
2019-02-25T20:08:05.200Z,55.20
2019-02-25T20:10:34.702Z,55.20
2019-02-25T20:13:05.693Z,55.50
2019-02-25T20:15:37.639Z,55.50
2019-02-25T20:18:06.991Z,55.60
2019-02-25T20:20:36.996Z,55.70
2019-02-25T20:23:06.182Z,55.80
2019-02-25T20:25:35.716Z,55.90
2019-02-25T20:28:04.386Z,56.00
2019-02-25T20:30:32.799Z,56.20
2019-02-25T20:33:03.212Z,56.30
2019-02-25T20:35:31.438Z,56.30
2019-02-25T20:38:00.392Z,56.50
2019-02-25T20:40:30.615Z,56.60
2019-02-25T20:43:00.953Z,56.70
2019-02-25T20:45:35.465Z,56.90
2019-02-25T20:48:04.110Z,56.90
2019-02-25T20:50:32.882Z,57.00
2019-02-25T20:53:05.484Z,57.10
2019-02-25T20:55:33.872Z,57.20
2019-02-25T20:58:01.892Z,57.30
2019-02-25T21:00:30.349Z,57.40
2019-02-25T21:02:58.836Z,57.50
2019-02-25T21:05:27.453Z,57.60
2019-02-25T21:07:59.176Z,57.80
2019-02-25T21:10:27.895Z,57.80
2019-02-25T21:12:57.086Z,57.90
2019-02-25T21:15:26.066Z,58.00
2019-02-25T21:17:56.760Z,58.00
2019-02-25T21:20:26.217Z,58.20
2019-02-25T21:22:57.391Z,58.20
2019-02-25T21:25:26.951Z,58.30
2019-02-25T21:27:57.442Z,58.40
2019-02-25T21:30:25.333Z,58.50
2019-02-25T21:32:54.359Z,58.60
2019-02-25T21:35:27.644Z,58.60
2019-02-25T21:37:54.599Z,58.70
2019-02-25T21:40:26.459Z,58.90
2019-02-25T21:42:56.400Z,58.90
2019-02-25T21:45:25.293Z,59.10
2019-02-25T21:47:56.650Z,59.10
2019-02-25T21:50:26.306Z,59.20
2019-02-25T21:52:54.445Z,59.30
2019-02-25T21:55:23.824Z,59.50
2019-02-25T21:57:55.017Z,59.50
2019-02-25T22:00:26.802Z,59.60
2019-02-25T22:02:54.933Z,59.60
2019-02-25T22:05:23.716Z,59.70
2019-02-25T22:07:54.289Z,59.90
2019-02-25T22:10:22.594Z,59.90
2019-02-25T22:12:50.983Z,60.00
2019-02-25T22:15:22.094Z,60.10
2019-02-25T22:17:51.347Z,60.30
2019-02-25T22:20:22.535Z,60.20
2019-02-25T22:22:54.458Z,60.30
2019-02-25T22:25:24.213Z,60.50
2019-02-25T22:27:52.926Z,60.60
2019-02-25T22:30:21.331Z,60.90
2019-02-25T22:32:49.727Z,60.80
2019-02-25T22:35:18.273Z,60.90
2019-02-25T22:37:49.274Z,60.90
2019-02-25T22:40:17.529Z,61.00
2019-02-25T22:42:47.943Z,61.10
2019-02-25T22:45:21.138Z,61.20
2019-02-25T22:47:49.772Z,61.30
2019-02-25T22:50:18.180Z,61.40
2019-02-25T22:52:46.571Z,61.60
2019-02-25T22:55:17.382Z,61.60
2019-02-25T22:57:46.034Z,61.70
2019-02-25T23:00:19.780Z,61.80
2019-02-25T23:02:49.801Z,61.90
2019-02-25T23:05:18.938Z,61.90
2019-02-25T23:07:50.132Z,62.00
2019-02-25T23:10:20.213Z,62.10
2019-02-25T23:12:48.585Z,62.20
2019-02-25T23:15:18.292Z,62.20
2019-02-25T23:17:47.287Z,62.40
2019-02-25T23:20:15.748Z,62.50
2019-02-25T23:22:44.158Z,62.50
2019-02-25T23:25:12.825Z,62.70
2019-02-25T23:27:41.235Z,62.60
2019-02-25T23:30:12.619Z,62.80
2019-02-25T23:32:41.018Z,62.90
2019-02-25T23:35:11.860Z,62.90
2019-02-25T23:37:39.555Z,62.90
2019-02-25T23:40:11.994Z,63.00
2019-02-25T23:42:41.885Z,63.20
2019-02-25T23:45:13.001Z,63.20
2019-02-25T23:47:41.888Z,63.30
2019-02-25T23:50:14.281Z,63.50
2019-02-25T23:52:42.679Z,63.50
2019-02-25T23:55:14.622Z,63.60
2019-02-25T23:57:42.276Z,63.60
